Feng De Hai — VROR3 — position and weather

sailwx.info

Track history (hours):
 
Tides and Currents Weather Stations Pressure Air Temp Water Temp Dewpoint Dewpoint Depression Visibility Wind Speed Wind Dir Waves Ship Positions

Feng De Hai

Last reported at 2017-Nov-22 23:35 UTC. Time now 2017-Nov-24 12:48 UTC.
Position N 36°22' E 014°43'.

Length 200 m; draft 10.3 m.

Type: Ship. MMSI: 477684100.

Date/timePositionNaut miles runAvg speedWind from/ knotsBaromVisibWave heightAir tempDewpointWater temp
2017-Nov-22 23:35N 36°22' E 014°43'114.1
2017-Nov-22 23:30N 36°22' E 014°41'814.1
2017-Nov-22 22:56N 36°25' E 014°32'613.9
2017-Nov-22 22:30N 36°26' E 014°25'714.1
2017-Nov-22 22:00N 36°28' E 014°17'714.1
2017-Nov-22 21:30N 36°31' E 014°08'713.9
2017-Nov-22 21:00N 36°33' E 013°60'713.9
2017-Nov-22 20:30N 36°35' E 013°52'  
2017-Nov-20 00:31N 35°57' W 005°30'16812.0
2017-Nov-19 10:33N 36°28' W 008°55'112.8
2017-Nov-19 10:29N 36°28' W 008°55'1013.0
2017-Nov-19 09:43N 36°31' W 009°08'313.0
2017-Nov-19 09:30N 36°32' W 009°11'713.1
2017-Nov-19 08:57N 36°36' W 009°19'613.5
2017-Nov-19 08:30N 36°40' W 009°24'713.2
2017-Nov-19 08:01N 36°45' W 009°29'612.8
2017-Nov-19 07:31N 36°50' W 009°33'713.6
2017-Nov-19 07:01N 36°57' W 009°36'713.4
2017-Nov-19 06:31N 37°03' W 009°38'612.8
2017-Nov-19 06:01N 37°10' W 009°39'613.0
2017-Nov-19 05:30N 37°16' W 009°41'713.5
2017-Nov-19 05:00N 37°23' W 009°43'713.4
2017-Nov-19 04:31N 37°29' W 009°45'713.7
2017-Nov-19 04:01N 37°36' W 009°47'713.8
2017-Nov-19 03:31N 37°42' W 009°49'713.9
2017-Nov-19 03:00N 37°49' W 009°51'713.8
2017-Nov-19 02:31N 37°56' W 009°53'714.0
2017-Nov-19 02:01N 38°03' W 009°55'714.5
2017-Nov-19 01:31N 38°10' W 009°57'714.1
2017-Nov-19 01:00N 38°17' W 009°59'713.7
2017-Nov-19 00:31N 38°23' W 010°01'713.8
2017-Nov-19 00:01N 38°30' W 010°02'713.6
2017-Nov-18 23:31N 38°37' W 010°04'713.5
2017-Nov-18 23:01N 38°44' W 010°06'713.6
2017-Nov-18 22:31N 38°50' W 010°06'713.4
2017-Nov-18 22:00N 38°57' W 010°07'713.3
2017-Nov-18 21:30N 39°04' W 010°07'713.8
2017-Nov-18 21:00N 39°11' W 010°07'713.6
2017-Nov-18 20:31N 39°17' W 010°07'713.6
2017-Nov-18 20:00N 39°24' W 010°07'713.6
2017-Nov-18 19:30N 39°31' W 010°06'713.4
2017-Nov-18 19:00N 39°38' W 010°06'713.0
2017-Nov-18 18:30N 39°44' W 010°06'713.6
2017-Nov-18 18:00N 39°51' W 010°06'713.7
2017-Nov-18 17:30N 39°58' W 010°07'713.9
2017-Nov-18 17:00N 40°05' W 010°07'2014.1
2017-Nov-18 15:35N 40°25' W 010°07'114.1
2017-Nov-18 15:30N 40°26' W 010°07'1214.3
2017-Nov-18 14:40N 40°38' W 010°07'214.0
2017-Nov-18 14:31N 40°40' W 010°07'713.6
2017-Nov-18 14:00N 40°47' W 010°07'1913.5
2017-Nov-18 12:35N 41°06' W 010°07'313.7
2017-Nov-18 12:22N 41°09' W 010°07'36312.9
2017-Nov-17 08:11N 46°53' W 007°25'1013.5
2017-Nov-17 07:27N 47°02' W 007°18'16613.2
2017-Nov-16 18:52N 49°17' W 004°53'6412.6
2017-Nov-16 13:46N 49°50' W 003°28'413.7
2017-Nov-16 13:30N 49°52' W 003°23'914.2
2017-Nov-16 12:53N 49°56' W 003°11'614.8
2017-Nov-16 12:31N 49°58' W 003°03'815.2
2017-Nov-16 12:00N 50°00' W 002°52'915.3
2017-Nov-16 11:24N 50°03' W 002°38'615.2
2017-Nov-16 11:00N 50°05' W 002°29'914.6
2017-Nov-16 10:23N 50°06' W 002°15'514.2
2017-Nov-16 10:00N 50°07' W 002°07'713.4
2017-Nov-16 09:30N 50°09' W 001°57'612.5
2017-Nov-16 09:00N 50°11' W 001°47'611.7
2017-Nov-16 08:31N 50°12' W 001°39'611.2
2017-Nov-16 08:00N 50°14' W 001°30'510.7
2017-Nov-16 07:30N 50°15' W 001°22'910.2
2017-Nov-16 06:35N 50°18' W 001°08'2911.5
2017-Nov-16 04:03N 50°25' W 000°24'113.4
2017-Nov-16 04:00N 50°25' W 000°23'713.8
2017-Nov-16 03:28N 50°27' W 000°12'714.4
2017-Nov-16 03:00N 50°29' W 000°02'714.6
2017-Nov-16 02:30N 50°31' E 000°09'714.9
2017-Nov-16 02:00N 50°33' E 000°20'714.8
2017-Nov-16 01:30N 50°35' E 000°31'714.3
2017-Nov-16 01:00N 50°39' E 000°41'714.0
2017-Nov-16 00:30N 50°43' E 000°50'713.5
2017-Nov-16 00:00N 50°47' E 000°58'612.9
2017-Nov-15 23:30N 50°52' E 001°06'612.2
2017-Nov-15 23:00N 50°56' E 001°13'611.4
2017-Nov-15 22:30N 50°60' E 001°20'511.0
2017-Nov-15 22:00N 51°04' E 001°26'611.3
2017-Nov-15 21:30N 51°07' E 001°33'611.7
2017-Nov-15 21:00N 51°11' E 001°40'612.6
2017-Nov-15 20:30N 51°16' E 001°47'713.9
2017-Nov-15 20:01N 51°22' E 001°52'714.6
2017-Nov-15 19:31N 51°28' E 001°59'815.1
2017-Nov-15 19:01N 51°33' E 002°07'815.1
2017-Nov-15 18:30N 51°39' E 002°15'7213.5
2017-Nov-15 13:12N 52°30' E 003°37'312.1
2017-Nov-15 12:56N 52°31' E 003°42'512.7
2017-Nov-15 12:30N 52°31' E 003°51'612.6
2017-Nov-15 12:00N 52°31' E 004°01'612.8
2017-Nov-15 11:30N 52°31' E 004°11'612.2
2017-Nov-15 11:00N 52°30' E 004°21'5 9.5
2017-Nov-15 10:30N 52°28' E 004°29'4 8.9
2017-Nov-15 10:00N 52°28' E 004°36'1 1.1
2017-Nov-15 09:31N 52°28' E 004°37'3 5.3
2017-Nov-15 09:00N 52°27' E 004°41'4 7.1
2017-Nov-15 08:31N 52°26' E 004°46'1 2.8
2017-Nov-15 08:01N 52°24' E 004°47'0 0.7
2017-Nov-15 07:29N 52°24' E 004°47'0 0.0
2017-Nov-15 06:59N 52°24' E 004°47'0 0.0
2017-Nov-15 06:29N 52°24' E 004°47'0 0.0
2017-Nov-15 05:56N 52°24' E 004°47'0 0.0
2017-Nov-15 05:29N 52°24' E 004°47'0 0.0
2017-Nov-15 04:59N 52°24' E 004°47'0 0.0
2017-Nov-15 04:29N 52°24' E 004°47'0 0.0
2017-Nov-15 03:59N 52°24' E 004°47'0 0.0
2017-Nov-15 03:26N 52°24' E 004°47'0 0.0
2017-Nov-15 02:59N 52°24' E 004°47'0 0.0
2017-Nov-15 02:29N 52°24' E 004°47'0 0.0
2017-Nov-15 01:59N 52°24' E 004°47'0 0.0
2017-Nov-15 01:29N 52°24' E 004°47'0 0.0
2017-Nov-15 00:59N 52°24' E 004°47'0 0.0
2017-Nov-15 00:29N 52°24' E 004°47'0 0.0
2017-Nov-14 23:59N 52°24' E 004°47'0 0.0
2017-Nov-14 23:29N 52°24' E 004°47'0 0.0
2017-Nov-14 22:59N 52°24' E 004°47'0 0.0
2017-Nov-14 22:29N 52°24' E 004°47'0 0.0
2017-Nov-14 21:59N 52°24' E 004°47'0 0.0
2017-Nov-14 21:29N 52°24' E 004°47'0 0.0
2017-Nov-14 20:59N 52°24' E 004°47'0 0.0
2017-Nov-14 20:29N 52°24' E 004°47'0 0.0
2017-Nov-14 19:59N 52°24' E 004°47'0 0.0
2017-Nov-14 19:29N 52°24' E 004°47'0 0.0
2017-Nov-14 18:59N 52°24' E 004°47'0 0.0
2017-Nov-14 18:29N 52°24' E 004°47'0 0.0
2017-Nov-14 17:59N 52°24' E 004°47'0 0.0
2017-Nov-14 17:29N 52°24' E 004°47'0 0.0
2017-Nov-14 16:59N 52°24' E 004°47'0 0.0
2017-Nov-14 16:29N 52°24' E 004°47'0 0.0
2017-Nov-14 15:59N 52°24' E 004°47'0 0.0
2017-Nov-14 15:29N 52°24' E 004°47'0 0.0
2017-Nov-14 14:59N 52°24' E 004°47'0 0.0
2017-Nov-14 14:29N 52°24' E 004°47'0 0.0
2017-Nov-14 13:59N 52°24' E 004°47'0 0.0
2017-Nov-14 13:29N 52°24' E 004°47'0 0.0
2017-Nov-14 12:59N 52°24' E 004°47'0 0.0
2017-Nov-14 12:29N 52°24' E 004°47'0 0.0
2017-Nov-14 11:59N 52°24' E 004°47'0 0.0
2017-Nov-14 11:29N 52°24' E 004°47'0 0.0
2017-Nov-14 10:59N 52°24' E 004°47'0 0.0
2017-Nov-14 10:29N 52°24' E 004°47'0 0.0
2017-Nov-14 09:59N 52°24' E 004°47'0 0.0
2017-Nov-14 09:29N 52°24' E 004°47'0 0.0
2017-Nov-14 08:59N 52°24' E 004°47'0 0.0
2017-Nov-14 08:29N 52°24' E 004°47'0 0.0
2017-Nov-14 07:59N 52°24' E 004°47'0 0.0
2017-Nov-14 07:29N 52°24' E 004°47'0 0.0
2017-Nov-14 06:59N 52°24' E 004°47'0 0.0
2017-Nov-14 06:29N 52°24' E 004°47'0 0.0
2017-Nov-14 05:59N 52°24' E 004°47'0 0.0
2017-Nov-14 05:29N 52°24' E 004°47'0 0.0
2017-Nov-14 04:59N 52°24' E 004°47'0 0.0
2017-Nov-14 04:29N 52°24' E 004°47'0 0.0
2017-Nov-14 03:59N 52°24' E 004°47'0 0.0
2017-Nov-14 03:29N 52°24' E 004°47'0 0.0
2017-Nov-14 02:59N 52°24' E 004°47'0 0.0
2017-Nov-14 02:29N 52°24' E 004°47'0 0.0
2017-Nov-14 01:59N 52°24' E 004°47'0 0.0
2017-Nov-14 01:29N 52°24' E 004°47'0 0.0
2017-Nov-14 00:59N 52°24' E 004°47'0 0.0
2017-Nov-14 00:29N 52°24' E 004°47'0 0.0
2017-Nov-13 23:59N 52°24' E 004°47'0 0.0
2017-Nov-13 23:29N 52°24' E 004°47'0 0.0
2017-Nov-13 22:59N 52°24' E 004°47'0 0.0
2017-Nov-13 22:29N 52°24' E 004°47'0 0.0
2017-Nov-13 21:59N 52°24' E 004°47'0 0.0
2017-Nov-13 01:55N 52°24' E 004°47'0 0.0
2017-Nov-13 01:28N 52°24' E 004°47'0 0.0
2017-Nov-13 00:55N 52°24' E 004°47'0 0.0
2017-Nov-13 00:28N 52°24' E 004°47'0 0.0
2017-Nov-12 23:58N 52°24' E 004°47'  
Track history (hours):
 
Tides and Currents Weather Stations Pressure Air Temp Water Temp Dewpoint Dewpoint Depression Visibility Wind Speed Wind Dir Waves Ship Positions

Feng De Hai

Last reported at 2017-Nov-22 23:35 UTC. Time now 2017-Nov-24 12:48 UTC.
Position N 36°22' E 014°43'.

Length 200 m; draft 10.3 m.

Type: Ship. MMSI: 477684100.

Date/timePositionNaut miles runAvg speedWind from/ knotsBaromVisibWave heightAir tempDewpointWater temp
2017-Nov-22 23:35N 36°22' E 014°43'114.1
2017-Nov-22 23:30N 36°22' E 014°41'814.1
2017-Nov-22 22:56N 36°25' E 014°32'613.9
2017-Nov-22 22:30N 36°26' E 014°25'714.1
2017-Nov-22 22:00N 36°28' E 014°17'714.1
2017-Nov-22 21:30N 36°31' E 014°08'713.9
2017-Nov-22 21:00N 36°33' E 013°60'713.9
2017-Nov-22 20:30N 36°35' E 013°52'  
2017-Nov-20 00:31N 35°57' W 005°30'16812.0
2017-Nov-19 10:33N 36°28' W 008°55'112.8
2017-Nov-19 10:29N 36°28' W 008°55'1013.0
2017-Nov-19 09:43N 36°31' W 009°08'313.0
2017-Nov-19 09:30N 36°32' W 009°11'713.1
2017-Nov-19 08:57N 36°36' W 009°19'613.5
2017-Nov-19 08:30N 36°40' W 009°24'713.2
2017-Nov-19 08:01N 36°45' W 009°29'612.8
2017-Nov-19 07:31N 36°50' W 009°33'713.6
2017-Nov-19 07:01N 36°57' W 009°36'713.4
2017-Nov-19 06:31N 37°03' W 009°38'612.8
2017-Nov-19 06:01N 37°10' W 009°39'613.0
2017-Nov-19 05:30N 37°16' W 009°41'713.5
2017-Nov-19 05:00N 37°23' W 009°43'713.4
2017-Nov-19 04:31N 37°29' W 009°45'713.7
2017-Nov-19 04:01N 37°36' W 009°47'713.8
2017-Nov-19 03:31N 37°42' W 009°49'713.9
2017-Nov-19 03:00N 37°49' W 009°51'713.8
2017-Nov-19 02:31N 37°56' W 009°53'714.0
2017-Nov-19 02:01N 38°03' W 009°55'714.5
2017-Nov-19 01:31N 38°10' W 009°57'714.1
2017-Nov-19 01:00N 38°17' W 009°59'713.7
2017-Nov-19 00:31N 38°23' W 010°01'713.8
2017-Nov-19 00:01N 38°30' W 010°02'713.6
2017-Nov-18 23:31N 38°37' W 010°04'713.5
2017-Nov-18 23:01N 38°44' W 010°06'713.6
2017-Nov-18 22:31N 38°50' W 010°06'713.4
2017-Nov-18 22:00N 38°57' W 010°07'713.3
2017-Nov-18 21:30N 39°04' W 010°07'713.8
2017-Nov-18 21:00N 39°11' W 010°07'713.6
2017-Nov-18 20:31N 39°17' W 010°07'713.6
2017-Nov-18 20:00N 39°24' W 010°07'713.6
2017-Nov-18 19:30N 39°31' W 010°06'713.4
2017-Nov-18 19:00N 39°38' W 010°06'713.0
2017-Nov-18 18:30N 39°44' W 010°06'713.6
2017-Nov-18 18:00N 39°51' W 010°06'713.7
2017-Nov-18 17:30N 39°58' W 010°07'713.9
2017-Nov-18 17:00N 40°05' W 010°07'2014.1
2017-Nov-18 15:35N 40°25' W 010°07'114.1
2017-Nov-18 15:30N 40°26' W 010°07'1214.3
2017-Nov-18 14:40N 40°38' W 010°07'214.0
2017-Nov-18 14:31N 40°40' W 010°07'713.6
2017-Nov-18 14:00N 40°47' W 010°07'1913.5
2017-Nov-18 12:35N 41°06' W 010°07'313.7
2017-Nov-18 12:22N 41°09' W 010°07'36312.9
2017-Nov-17 08:11N 46°53' W 007°25'1013.5
2017-Nov-17 07:27N 47°02' W 007°18'16613.2
2017-Nov-16 18:52N 49°17' W 004°53'6412.6
2017-Nov-16 13:46N 49°50' W 003°28'413.7
2017-Nov-16 13:30N 49°52' W 003°23'914.2
2017-Nov-16 12:53N 49°56' W 003°11'614.8
2017-Nov-16 12:31N 49°58' W 003°03'815.2
2017-Nov-16 12:00N 50°00' W 002°52'915.3
2017-Nov-16 11:24N 50°03' W 002°38'615.2
2017-Nov-16 11:00N 50°05' W 002°29'914.6
2017-Nov-16 10:23N 50°06' W 002°15'514.2
2017-Nov-16 10:00N 50°07' W 002°07'713.4
2017-Nov-16 09:30N 50°09' W 001°57'612.5
2017-Nov-16 09:00N 50°11' W 001°47'611.7
2017-Nov-16 08:31N 50°12' W 001°39'611.2
2017-Nov-16 08:00N 50°14' W 001°30'510.7
2017-Nov-16 07:30N 50°15' W 001°22'910.2
2017-Nov-16 06:35N 50°18' W 001°08'2911.5
2017-Nov-16 04:03N 50°25' W 000°24'113.4
2017-Nov-16 04:00N 50°25' W 000°23'713.8
2017-Nov-16 03:28N 50°27' W 000°12'714.4
2017-Nov-16 03:00N 50°29' W 000°02'714.6
2017-Nov-16 02:30N 50°31' E 000°09'714.9
2017-Nov-16 02:00N 50°33' E 000°20'714.8
2017-Nov-16 01:30N 50°35' E 000°31'714.3
2017-Nov-16 01:00N 50°39' E 000°41'714.0
2017-Nov-16 00:30N 50°43' E 000°50'713.5
2017-Nov-16 00:00N 50°47' E 000°58'612.9
2017-Nov-15 23:30N 50°52' E 001°06'612.2
2017-Nov-15 23:00N 50°56' E 001°13'611.4
2017-Nov-15 22:30N 50°60' E 001°20'511.0
2017-Nov-15 22:00N 51°04' E 001°26'611.3
2017-Nov-15 21:30N 51°07' E 001°33'611.7
2017-Nov-15 21:00N 51°11' E 001°40'612.6
2017-Nov-15 20:30N 51°16' E 001°47'713.9
2017-Nov-15 20:01N 51°22' E 001°52'714.6
2017-Nov-15 19:31N 51°28' E 001°59'815.1
2017-Nov-15 19:01N 51°33' E 002°07'815.1
2017-Nov-15 18:30N 51°39' E 002°15'7213.5
2017-Nov-15 13:12N 52°30' E 003°37'312.1
2017-Nov-15 12:56N 52°31' E 003°42'512.7
2017-Nov-15 12:30N 52°31' E 003°51'612.6
2017-Nov-15 12:00N 52°31' E 004°01'612.8
2017-Nov-15 11:30N 52°31' E 004°11'612.2
2017-Nov-15 11:00N 52°30' E 004°21'5 9.5
2017-Nov-15 10:30N 52°28' E 004°29'4 8.9
2017-Nov-15 10:00N 52°28' E 004°36'1 1.1
2017-Nov-15 09:31N 52°28' E 004°37'3 5.3
2017-Nov-15 09:00N 52°27' E 004°41'4 7.1
2017-Nov-15 08:31N 52°26' E 004°46'1 2.8
2017-Nov-15 08:01N 52°24' E 004°47'0 0.7
2017-Nov-15 07:29N 52°24' E 004°47'0 0.0
2017-Nov-15 06:59N 52°24' E 004°47'0 0.0
2017-Nov-15 06:29N 52°24' E 004°47'0 0.0
2017-Nov-15 05:56N 52°24' E 004°47'0 0.0
2017-Nov-15 05:29N 52°24' E 004°47'0 0.0
2017-Nov-15 04:59N 52°24' E 004°47'0 0.0
2017-Nov-15 04:29N 52°24' E 004°47'0 0.0
2017-Nov-15 03:59N 52°24' E 004°47'0 0.0
2017-Nov-15 03:26N 52°24' E 004°47'0 0.0
2017-Nov-15 02:59N 52°24' E 004°47'0 0.0
2017-Nov-15 02:29N 52°24' E 004°47'0 0.0
2017-Nov-15 01:59N 52°24' E 004°47'0 0.0
2017-Nov-15 01:29N 52°24' E 004°47'0 0.0
2017-Nov-15 00:59N 52°24' E 004°47'0 0.0
2017-Nov-15 00:29N 52°24' E 004°47'0 0.0
2017-Nov-14 23:59N 52°24' E 004°47'0 0.0
2017-Nov-14 23:29N 52°24' E 004°47'0 0.0
2017-Nov-14 22:59N 52°24' E 004°47'0 0.0
2017-Nov-14 22:29N 52°24' E 004°47'0 0.0
2017-Nov-14 21:59N 52°24' E 004°47'0 0.0
2017-Nov-14 21:29N 52°24' E 004°47'0 0.0
2017-Nov-14 20:59N 52°24' E 004°47'0 0.0
2017-Nov-14 20:29N 52°24' E 004°47'0 0.0
2017-Nov-14 19:59N 52°24' E 004°47'0 0.0
2017-Nov-14 19:29N 52°24' E 004°47'0 0.0
2017-Nov-14 18:59N 52°24' E 004°47'0 0.0
2017-Nov-14 18:29N 52°24' E 004°47'0 0.0
2017-Nov-14 17:59N 52°24' E 004°47'0 0.0
2017-Nov-14 17:29N 52°24' E 004°47'0 0.0
2017-Nov-14 16:59N 52°24' E 004°47'0 0.0
2017-Nov-14 16:29N 52°24' E 004°47'0 0.0
2017-Nov-14 15:59N 52°24' E 004°47'0 0.0
2017-Nov-14 15:29N 52°24' E 004°47'0 0.0
2017-Nov-14 14:59N 52°24' E 004°47'0 0.0
2017-Nov-14 14:29N 52°24' E 004°47'0 0.0
2017-Nov-14 13:59N 52°24' E 004°47'0 0.0
2017-Nov-14 13:29N 52°24' E 004°47'0 0.0
2017-Nov-14 12:59N 52°24' E 004°47'0 0.0
2017-Nov-14 12:29N 52°24' E 004°47'0 0.0
2017-Nov-14 11:59N 52°24' E 004°47'0 0.0
2017-Nov-14 11:29N 52°24' E 004°47'0 0.0
2017-Nov-14 10:59N 52°24' E 004°47'0 0.0
2017-Nov-14 10:29N 52°24' E 004°47'0 0.0
2017-Nov-14 09:59N 52°24' E 004°47'0 0.0
2017-Nov-14 09:29N 52°24' E 004°47'0 0.0
2017-Nov-14 08:59N 52°24' E 004°47'0 0.0
2017-Nov-14 08:29N 52°24' E 004°47'0 0.0
2017-Nov-14 07:59N 52°24' E 004°47'0 0.0
2017-Nov-14 07:29N 52°24' E 004°47'0 0.0
2017-Nov-14 06:59N 52°24' E 004°47'0 0.0
2017-Nov-14 06:29N 52°24' E 004°47'0 0.0
2017-Nov-14 05:59N 52°24' E 004°47'0 0.0
2017-Nov-14 05:29N 52°24' E 004°47'0 0.0
2017-Nov-14 04:59N 52°24' E 004°47'0 0.0
2017-Nov-14 04:29N 52°24' E 004°47'0 0.0
2017-Nov-14 03:59N 52°24' E 004°47'0 0.0
2017-Nov-14 03:29N 52°24' E 004°47'0 0.0
2017-Nov-14 02:59N 52°24' E 004°47'0 0.0
2017-Nov-14 02:29N 52°24' E 004°47'0 0.0
2017-Nov-14 01:59N 52°24' E 004°47'0 0.0
2017-Nov-14 01:29N 52°24' E 004°47'0 0.0
2017-Nov-14 00:59N 52°24' E 004°47'0 0.0
2017-Nov-14 00:29N 52°24' E 004°47'0 0.0
2017-Nov-13 23:59N 52°24' E 004°47'0 0.0
2017-Nov-13 23:29N 52°24' E 004°47'0 0.0
2017-Nov-13 22:59N 52°24' E 004°47'0 0.0
2017-Nov-13 22:29N 52°24' E 004°47'0 0.0
2017-Nov-13 21:59N 52°24' E 004°47'0 0.0
2017-Nov-13 01:55N 52°24' E 004°47'0 0.0
2017-Nov-13 01:28N 52°24' E 004°47'0 0.0
2017-Nov-13 00:55N 52°24' E 004°47'0 0.0
2017-Nov-13 00:28N 52°24' E 004°47'0 0.0
2017-Nov-12 23:58N 52°24' E 004°47'  

Dump ship's entire track history